createdAt,value
2023-04-12T00:01:04.203Z,5.97
2023-04-12T00:03:34.347Z,7.63
2023-04-12T00:06:03.495Z,6.10
2023-04-12T00:08:33.871Z,5.88
2023-04-12T00:11:02.321Z,5.50
2023-04-12T00:13:30.161Z,7.18
2023-04-12T00:15:56.980Z,7.93
2023-04-12T00:18:25.583Z,5.32
2023-04-12T00:20:53.189Z,4.72
2023-04-12T00:23:20.244Z,5.63
2023-04-12T00:25:47.349Z,6.03
2023-04-12T00:28:15.922Z,6.68
2023-04-12T00:30:43.207Z,6.57
2023-04-12T00:33:10.086Z,6.00
2023-04-12T00:35:36.954Z,4.53
2023-04-12T00:38:06.242Z,4.70
2023-04-12T00:40:33.180Z,6.47
2023-04-12T00:43:00.510Z,4.75
2023-04-12T00:45:27.429Z,5.72
2023-04-12T00:47:55.117Z,6.03
2023-04-12T00:50:23.442Z,5.65
2023-04-12T00:52:52.207Z,4.03
2023-04-12T00:55:19.418Z,6.05
2023-04-12T00:57:46.846Z,7.03
2023-04-12T01:00:26.350Z,6.70
2023-04-12T01:02:53.693Z,5.60
2023-04-12T01:05:23.617Z,5.25
2023-04-12T01:08:19.154Z,5.35
2023-04-12T01:11:14.602Z,5.40
2023-04-12T01:14:19.730Z,5.32
2023-04-12T01:16:53.697Z,5.45
2023-04-12T01:19:54.132Z,4.30
2023-04-12T01:22:55.572Z,6.20
2023-04-12T01:25:58.800Z,7.60
2023-04-12T01:28:31.840Z,4.30
2023-04-12T01:31:01.325Z,5.90
2023-04-12T01:33:31.501Z,6.28
2023-04-12T01:36:06.347Z,6.60
2023-04-12T01:38:34.805Z,5.40
2023-04-12T01:41:01.801Z,4.78
2023-04-12T01:43:28.748Z,5.43
2023-04-12T01:45:55.717Z,10.50
2023-04-12T01:48:22.698Z,7.85
2023-04-12T01:51:14.361Z,6.32
2023-04-12T01:53:52.245Z,4.10
2023-04-12T01:56:20.645Z,5.65
2023-04-12T01:58:50.766Z,4.00
2023-04-12T02:01:21.860Z,6.80
2023-04-12T02:03:50.957Z,8.63
2023-04-12T02:06:21.349Z,5.18
2023-04-12T02:08:48.928Z,4.85
2023-04-12T02:11:15.813Z,6.03
2023-04-12T02:13:42.609Z,8.57
2023-04-12T02:16:10.844Z,6.68
2023-04-12T02:18:37.862Z,9.35
2023-04-12T02:21:04.772Z,5.60
2023-04-12T02:23:31.749Z,4.80
2023-04-12T02:25:58.494Z,7.13
2023-04-12T02:28:25.332Z,5.00
2023-04-12T02:30:53.964Z,6.30
2023-04-12T02:33:21.788Z,5.32
2023-04-12T02:35:48.532Z,6.07
2023-04-12T02:38:16.536Z,7.00
2023-04-12T02:40:43.640Z,5.53
2023-04-12T02:43:10.739Z,6.07
2023-04-12T02:45:38.678Z,6.53
2023-04-12T02:48:06.062Z,4.72
2023-04-12T02:50:33.026Z,7.35
2023-04-12T02:52:59.854Z,7.38
2023-04-12T02:55:27.097Z,9.05
2023-04-12T02:57:53.873Z,5.45
2023-04-12T03:00:21.817Z,4.82
2023-04-12T03:02:51.451Z,4.25
2023-04-12T03:05:19.175Z,7.97
2023-04-12T03:07:46.472Z,5.68
2023-04-12T03:10:13.325Z,5.97
2023-04-12T03:12:40.268Z,4.88
2023-04-12T03:15:07.651Z,6.07
2023-04-12T03:17:34.600Z,6.07
2023-04-12T03:20:09.919Z,6.50
2023-04-12T03:22:37.526Z,4.07
2023-04-12T03:25:05.379Z,5.45
2023-04-12T03:27:32.690Z,4.85
2023-04-12T03:29:59.464Z,4.55
2023-04-12T03:32:26.364Z,4.30
2023-04-12T03:34:53.157Z,4.28
2023-04-12T03:37:19.981Z,4.22
2023-04-12T03:39:48.332Z,3.92
2023-04-12T03:42:29.518Z,3.60
2023-04-12T03:44:59.045Z,4.82
2023-04-12T03:47:25.943Z,3.60
2023-04-12T03:50:10.460Z,4.95
2023-04-12T03:52:38.576Z,4.90
2023-04-12T03:55:07.369Z,4.05
2023-04-12T03:57:34.840Z,5.88
2023-04-12T04:00:02.453Z,5.63
2023-04-12T04:02:29.427Z,4.55
2023-04-12T04:04:56.426Z,5.05
2023-04-12T04:07:23.326Z,6.35
2023-04-12T04:09:50.276Z,2.58
2023-04-12T04:12:17.205Z,5.25
2023-04-12T04:14:44.326Z,2.63
2023-04-12T04:17:11.409Z,2.65
2023-04-12T04:19:41.899Z,3.78
2023-04-12T04:22:10.123Z,3.05
2023-04-12T04:24:39.170Z,5.43
2023-04-12T04:27:06.609Z,2.75
2023-04-12T04:29:33.963Z,6.57
2023-04-12T04:32:01.551Z,2.22
2023-04-12T04:34:31.838Z,5.78
2023-04-12T04:36:58.570Z,3.78
2023-04-12T04:39:27.247Z,3.97
2023-04-12T04:41:54.863Z,4.13
2023-04-12T04:44:22.379Z,4.28
2023-04-12T04:46:49.420Z,4.53
2023-04-12T04:49:16.491Z,4.68
2023-04-12T04:51:43.269Z,4.80
2023-04-12T04:54:10.452Z,4.50
2023-04-12T04:56:37.244Z,3.33
2023-04-12T04:59:04.058Z,3.60
2023-04-12T05:01:32.053Z,3.10
2023-04-12T05:03:59.239Z,2.13
2023-04-12T05:06:26.077Z,3.72
2023-04-12T05:08:55.585Z,5.47
2023-04-12T05:11:22.512Z,4.45
2023-04-12T05:13:49.260Z,3.72
2023-04-12T05:16:16.093Z,4.22
2023-04-12T05:18:42.815Z,2.33
2023-04-12T05:21:09.528Z,2.75
2023-04-12T05:23:37.922Z,3.97
2023-04-12T05:26:05.163Z,2.92
2023-04-12T05:28:32.195Z,3.03
2023-04-12T05:31:01.159Z,3.90
2023-04-12T05:33:27.945Z,3.33
2023-04-12T05:35:54.763Z,4.85
2023-04-12T05:38:21.603Z,3.55
2023-04-12T05:40:50.162Z,3.20
2023-04-12T05:43:17.817Z,6.72
2023-04-12T05:45:44.570Z,3.35
2023-04-12T05:48:11.368Z,4.30
2023-04-12T05:50:38.194Z,4.90
2023-04-12T05:53:08.197Z,6.93
2023-04-12T05:55:37.256Z,5.90
2023-04-12T05:58:04.782Z,3.15
2023-04-12T06:00:33.357Z,4.20
2023-04-12T06:03:00.214Z,4.18
2023-04-12T06:05:27.135Z,3.90
2023-04-12T06:07:54.122Z,7.03
2023-04-12T06:10:21.242Z,4.65
2023-04-12T06:12:48.128Z,4.60
2023-04-12T06:15:14.911Z,4.35
2023-04-12T06:17:41.847Z,3.13
2023-04-12T06:20:09.696Z,3.55
2023-04-12T06:22:37.739Z,3.42
2023-04-12T06:25:05.331Z,4.72
2023-04-12T06:27:32.114Z,4.18
2023-04-12T06:29:59.040Z,5.53
2023-04-12T06:32:26.037Z,4.35
2023-04-12T06:34:53.287Z,4.75
2023-04-12T06:37:21.385Z,3.10
2023-04-12T06:39:48.195Z,2.92
2023-04-12T06:42:16.110Z,4.82
2023-04-12T06:44:42.882Z,7.63
2023-04-12T06:47:09.712Z,6.40
2023-04-12T06:49:36.597Z,4.43
2023-04-12T06:52:12.436Z,4.10
2023-04-12T06:54:39.872Z,3.80
2023-04-12T06:57:12.696Z,5.32
2023-04-12T06:59:39.854Z,7.95
2023-04-12T07:02:07.890Z,4.65
2023-04-12T07:04:34.958Z,5.55
2023-04-12T07:07:01.966Z,5.30
2023-04-12T07:09:32.313Z,6.30
2023-04-12T07:12:00.622Z,6.25
2023-04-12T07:14:27.351Z,4.93
2023-04-12T07:16:54.392Z,4.93
2023-04-12T07:19:21.433Z,3.80
2023-04-12T07:21:48.200Z,4.28
2023-04-12T07:24:14.938Z,3.60
2023-04-12T07:26:41.845Z,3.35
2023-04-12T07:29:08.586Z,4.38
2023-04-12T07:31:35.916Z,4.57
2023-04-12T07:34:02.846Z,3.63
2023-04-12T07:36:29.728Z,3.28
2023-04-12T07:38:58.847Z,2.78
2023-04-12T07:41:25.847Z,3.75
2023-04-12T07:43:52.585Z,6.30
2023-04-12T07:46:19.407Z,3.25
2023-04-12T07:48:46.306Z,3.75
2023-04-12T07:51:13.373Z,3.90
2023-04-12T07:53:41.998Z,3.38
2023-04-12T07:56:09.033Z,2.50
2023-04-12T07:58:35.902Z,3.83
2023-04-12T08:01:02.842Z,4.75
2023-04-12T08:03:29.818Z,2.38
2023-04-12T08:05:56.918Z,3.40
2023-04-12T08:08:23.776Z,3.30
2023-04-12T08:10:51.354Z,2.28
2023-04-12T08:13:18.364Z,4.22
2023-04-12T08:15:47.252Z,3.80
2023-04-12T08:18:14.446Z,5.85
2023-04-12T08:20:41.507Z,3.72
2023-04-12T08:23:08.486Z,4.35
2023-04-12T08:25:35.258Z,3.72
2023-04-12T08:28:02.118Z,3.95
2023-04-12T08:30:29.020Z,5.00
2023-04-12T08:32:56.209Z,5.28
2023-04-12T08:35:23.378Z,3.03
2023-04-12T08:37:50.115Z,5.80
2023-04-12T08:40:17.290Z,6.45
2023-04-12T08:42:44.409Z,6.15
2023-04-12T08:45:12.535Z,4.32
2023-04-12T08:47:41.673Z,3.35
2023-04-12T08:50:10.748Z,12.02
2023-04-12T08:52:39.530Z,4.03
2023-04-12T08:55:07.427Z,4.50
2023-04-12T08:57:36.800Z,3.92
2023-04-12T09:00:07.313Z,4.43
2023-04-12T09:02:37.500Z,3.15
2023-04-12T09:05:06.377Z,4.75
2023-04-12T09:07:34.008Z,4.30
2023-04-12T09:10:02.217Z,4.38
2023-04-12T09:12:29.274Z,2.80
2023-04-12T09:15:09.113Z,3.30
2023-04-12T09:17:37.040Z,2.97
2023-04-12T09:20:23.590Z,3.90
2023-04-12T09:22:50.718Z,4.68
2023-04-12T09:25:17.654Z,2.28
2023-04-12T09:27:51.947Z,2.78
2023-04-12T09:30:20.282Z,4.88
2023-04-12T09:32:50.896Z,4.60
2023-04-12T09:35:17.887Z,4.85
2023-04-12T09:37:44.778Z,4.72
2023-04-12T09:40:11.913Z,5.75
2023-04-12T09:42:56.601Z,2.22
2023-04-12T09:45:26.041Z,8.02
2023-04-12T09:47:54.046Z,6.32
2023-04-12T09:50:22.966Z,2.28
2023-04-12T09:52:50.187Z,2.67
2023-04-12T09:55:18.183Z,2.13
2023-04-12T09:57:45.679Z,2.88
2023-04-12T10:00:17.781Z,2.80
2023-04-12T10:02:48.275Z,2.30
2023-04-12T10:05:21.608Z,1.63
2023-04-12T10:07:50.123Z,3.58
2023-04-12T10:10:18.566Z,2.33
2023-04-12T10:12:47.303Z,2.28
2023-04-12T10:15:18.447Z,2.88
2023-04-12T10:17:53.614Z,1.52
2023-04-12T10:20:23.016Z,4.05
2023-04-12T10:22:52.651Z,4.07
2023-04-12T10:25:27.309Z,2.17
2023-04-12T10:27:54.223Z,5.20
2023-04-12T10:30:28.851Z,3.20
2023-04-12T10:33:04.522Z,1.30
2023-04-12T10:36:00.655Z,4.40
2023-04-12T10:38:33.662Z,3.20
2023-04-12T10:41:17.370Z,1.75
2023-04-12T10:46:46.414Z,1.90
2023-04-12T10:49:15.469Z,1.02
2023-04-12T10:52:01.157Z,1.90
2023-04-12T10:54:31.862Z,2.97
2023-04-12T10:56:58.612Z,2.90
2023-04-12T10:59:34.136Z,4.18
2023-04-12T11:02:09.896Z,1.00
2023-04-12T11:04:37.324Z,5.40
2023-04-12T11:07:10.174Z,3.25
2023-04-12T11:09:36.954Z,3.10
2023-04-12T11:12:09.596Z,1.77
2023-04-12T11:14:46.833Z,1.70
2023-04-12T11:17:14.171Z,1.92
2023-04-12T11:19:54.643Z,1.30
2023-04-12T11:22:24.216Z,1.55
2023-04-12T11:24:56.923Z,1.98
2023-04-12T11:27:25.516Z,1.45
2023-04-12T11:29:56.086Z,3.83
2023-04-12T11:32:26.442Z,3.03
2023-04-12T11:34:54.680Z,1.98
2023-04-12T11:37:22.339Z,1.73
2023-04-12T11:39:53.136Z,4.90
2023-04-12T11:42:22.653Z,2.20
2023-04-12T11:44:56.210Z,2.20
2023-04-12T11:47:25.610Z,1.70
2023-04-12T11:49:57.184Z,2.67
2023-04-12T11:52:31.620Z,3.47
2023-04-12T11:55:02.406Z,3.22
2023-04-12T11:57:29.375Z,2.05
2023-04-12T11:59:59.461Z,2.63
2023-04-12T12:02:30.371Z,2.50
2023-04-12T12:04:59.212Z,2.50
2023-04-12T12:07:26.723Z,2.35
2023-04-12T12:09:54.312Z,2.35
2023-04-12T12:12:23.982Z,2.13
2023-04-12T12:14:50.836Z,2.53
2023-04-12T12:17:17.659Z,2.40
2023-04-12T12:19:46.185Z,3.67
2023-04-12T12:22:21.716Z,2.88
2023-04-12T12:24:55.356Z,4.13
2023-04-12T12:27:24.174Z,3.55
2023-04-12T12:29:55.958Z,4.60
2023-04-12T12:32:23.743Z,8.43
2023-04-12T12:34:59.721Z,6.25
2023-04-12T12:37:27.643Z,3.28
2023-04-12T12:40:01.958Z,3.03
2023-04-12T12:42:29.204Z,14.43
2023-04-12T12:44:56.012Z,4.95
2023-04-12T12:47:22.956Z,5.18
2023-04-12T12:49:49.939Z,7.05
2023-04-12T12:52:17.978Z,4.35
2023-04-12T12:54:44.965Z,3.67
2023-04-12T12:57:12.096Z,2.95
2023-04-12T12:59:38.944Z,3.20
2023-04-12T13:02:07.482Z,3.13
2023-04-12T13:04:37.814Z,2.30
2023-04-12T13:07:04.835Z,2.55
2023-04-12T13:09:32.443Z,2.40
2023-04-12T13:11:59.333Z,2.05
2023-04-12T13:14:26.352Z,3.58
2023-04-12T13:16:54.135Z,2.60
2023-04-12T13:19:21.334Z,5.65
2023-04-12T13:21:49.003Z,2.35
2023-04-12T13:24:17.268Z,3.40
2023-04-12T13:26:44.170Z,2.67
2023-04-12T13:29:11.030Z,2.70
2023-04-12T13:31:37.826Z,7.72
2023-04-12T13:34:04.637Z,4.18
2023-04-12T13:36:31.896Z,2.42
2023-04-12T13:38:58.877Z,6.53
2023-04-12T13:41:26.244Z,4.70
2023-04-12T13:43:53.098Z,13.85
2023-04-12T13:46:20.113Z,7.85
2023-04-12T13:48:47.087Z,8.38
2023-04-12T13:51:13.912Z,8.40
2023-04-12T13:53:40.803Z,1.73
2023-04-12T13:56:07.965Z,1.48
2023-04-12T13:58:35.045Z,2.58
2023-04-12T14:01:02.507Z,0.55
2023-04-12T14:03:29.579Z,1.38
2023-04-12T14:06:00.650Z,2.42
2023-04-12T14:08:28.874Z,1.35
2023-04-12T14:10:55.966Z,1.80
2023-04-12T14:13:23.497Z,2.63
2023-04-12T14:15:51.649Z,1.25
2023-04-12T14:18:19.716Z,5.10
2023-04-12T14:20:52.284Z,0.93
2023-04-12T14:23:19.438Z,0.47
2023-04-12T14:25:46.537Z,1.58
2023-04-12T14:28:17.182Z,2.55
2023-04-12T14:30:50.261Z,0.57
2023-04-12T14:33:17.891Z,0.55
2023-04-12T14:35:45.656Z,0.77
2023-04-12T14:38:12.778Z,0.88
2023-04-12T14:40:39.650Z,0.45
2023-04-12T14:43:06.505Z,1.45
2023-04-12T14:45:33.359Z,0.43
2023-04-12T14:48:00.421Z,1.23
2023-04-12T14:50:27.308Z,0.75
2023-04-12T14:52:54.561Z,0.65
2023-04-12T14:55:21.536Z,1.90
2023-04-12T14:57:48.573Z,0.77
2023-04-12T15:00:16.454Z,1.55
2023-04-12T15:02:46.243Z,2.50
2023-04-12T15:05:13.529Z,1.02
2023-04-12T15:07:41.552Z,1.15
2023-04-12T15:10:09.137Z,1.00
2023-04-12T15:12:37.344Z,0.82
2023-04-12T15:15:06.288Z,1.15
2023-04-12T15:17:34.352Z,0.77
2023-04-12T15:20:09.093Z,1.48
2023-04-12T15:22:36.729Z,1.52
2023-04-12T15:25:04.490Z,0.88
2023-04-12T15:27:31.850Z,1.55
2023-04-12T15:29:59.620Z,1.13
2023-04-12T15:32:29.840Z,0.75
2023-04-12T15:34:56.741Z,0.38
2023-04-12T15:37:23.977Z,1.67
2023-04-12T15:39:50.770Z,3.00
2023-04-12T15:42:17.685Z,0.60
2023-04-12T15:44:45.505Z,1.17
2023-04-12T15:47:12.899Z,2.50
2023-04-12T15:49:40.198Z,0.52
2023-04-12T15:52:07.196Z,0.43
2023-04-12T15:54:35.161Z,1.50
2023-04-12T15:57:09.478Z,1.05
2023-04-12T15:59:38.150Z,0.77
2023-04-12T16:02:09.787Z,1.58
2023-04-12T16:07:04.638Z,0.50
2023-04-12T16:09:32.881Z,0.88
2023-04-12T16:12:01.891Z,0.85
2023-04-12T16:14:28.852Z,3.60
2023-04-12T16:16:57.782Z,0.45
2023-04-12T16:19:24.674Z,1.77
2023-04-12T16:21:51.555Z,1.77
2023-04-12T16:24:18.814Z,0.10
2023-04-12T16:26:46.266Z,1.45
2023-04-12T16:29:13.638Z,1.67
2023-04-12T16:31:40.562Z,0.65
2023-04-12T16:34:08.457Z,0.93
2023-04-12T16:36:35.734Z,2.15
2023-04-12T16:39:06.298Z,2.53
2023-04-12T16:41:33.244Z,1.95
2023-04-12T16:44:03.280Z,2.60
2023-04-12T16:46:30.364Z,2.10
2023-04-12T16:48:59.139Z,1.42
2023-04-12T16:51:27.184Z,1.00
2023-04-12T16:54:04.144Z,1.02
2023-04-12T16:56:31.075Z,3.90
2023-04-12T16:58:59.160Z,0.75
2023-04-12T17:01:26.071Z,2.45
2023-04-12T17:03:53.421Z,1.25
2023-04-12T17:06:20.493Z,5.05
2023-04-12T17:08:49.049Z,2.90
2023-04-12T17:11:15.860Z,1.10
2023-04-12T17:13:44.639Z,1.65
2023-04-12T17:16:11.720Z,0.70
2023-04-12T17:18:40.350Z,1.10
2023-04-12T17:21:07.215Z,1.88
2023-04-12T17:23:34.089Z,1.15
2023-04-12T17:26:01.373Z,5.93
2023-04-12T17:28:28.303Z,2.60
2023-04-12T17:30:58.228Z,0.75
2023-04-12T17:33:26.236Z,1.60
2023-04-12T17:35:53.102Z,1.10
2023-04-12T17:38:20.227Z,0.88
2023-04-12T17:40:47.131Z,0.30
2023-04-12T17:43:14.085Z,0.43
2023-04-12T17:45:41.160Z,1.88
2023-04-12T17:48:11.088Z,1.60
2023-04-12T17:50:38.021Z,0.93
2023-04-12T17:53:04.903Z,0.47
2023-04-12T17:55:31.768Z,0.93
2023-04-12T17:57:59.142Z,2.30
2023-04-12T18:00:26.756Z,4.10
2023-04-12T18:02:53.707Z,2.25
2023-04-12T18:05:23.089Z,0.40
2023-04-12T18:07:49.948Z,0.85
2023-04-12T18:10:21.406Z,1.67
2023-04-12T18:12:48.654Z,5.35
2023-04-12T18:15:16.482Z,1.85
2023-04-12T18:17:43.671Z,0.75
2023-04-12T18:20:16.113Z,1.40
2023-04-12T18:23:27.276Z,1.42
2023-04-12T18:26:12.179Z,2.55
2023-04-12T18:31:22.897Z,0.65
2023-04-12T18:33:50.216Z,0.40
2023-04-12T18:36:17.161Z,0.63
2023-04-12T18:38:44.375Z,1.00
2023-04-12T18:41:24.428Z,1.05
2023-04-12T18:47:53.069Z,1.25
2023-04-12T18:50:29.121Z,0.60
2023-04-12T18:59:11.752Z,0.50
2023-04-12T19:01:48.201Z,1.73
2023-04-12T19:04:21.601Z,1.67
2023-04-12T19:06:48.677Z,1.25
2023-04-12T19:09:15.420Z,4.18
2023-04-12T19:11:42.427Z,3.17
2023-04-12T19:14:09.278Z,2.30
2023-04-12T19:16:36.734Z,1.02
2023-04-12T19:19:03.802Z,0.95
2023-04-12T19:21:31.542Z,0.40
2023-04-12T19:23:58.707Z,1.13
2023-04-12T19:26:28.100Z,1.30
2023-04-12T19:28:58.166Z,1.98
2023-04-12T19:31:25.763Z,0.98
2023-04-12T19:34:09.084Z,1.30
2023-04-12T19:36:35.881Z,1.13
2023-04-12T19:39:02.656Z,1.13
2023-04-12T19:41:30.129Z,0.13
2023-04-12T19:43:57.337Z,1.13
2023-04-12T19:46:24.509Z,2.45
2023-04-12T19:48:51.437Z,0.70
2023-04-12T19:51:18.435Z,2.42
2023-04-12T19:53:47.828Z,1.75
2023-04-12T19:56:15.125Z,0.57
2023-04-12T19:58:41.974Z,0.57
2023-04-12T20:01:09.951Z,0.55
2023-04-12T20:03:37.728Z,0.70
2023-04-12T20:06:05.389Z,0.90
2023-04-12T20:08:33.119Z,0.95
2023-04-12T20:11:10.832Z,0.90
2023-04-12T20:16:57.776Z,0.75
2023-04-12T20:19:44.573Z,0.88
2023-04-12T20:22:12.434Z,0.47
2023-04-12T20:24:39.745Z,0.88
2023-04-12T20:30:01.945Z,0.55
2023-04-12T20:32:29.891Z,0.55
2023-04-12T20:34:58.104Z,1.00
2023-04-12T20:37:25.037Z,1.08
2023-04-12T20:43:48.000Z,0.22
2023-04-12T20:46:17.457Z,1.45
2023-04-12T20:48:46.558Z,0.70
2023-04-12T20:51:49.210Z,2.42
2023-04-12T20:54:17.341Z,3.70
2023-04-12T20:56:46.627Z,2.97
2023-04-12T20:59:13.460Z,3.50
2023-04-12T21:01:40.201Z,0.63
2023-04-12T21:04:08.112Z,1.75
2023-04-12T21:06:39.783Z,18.48
2023-04-12T21:09:06.565Z,49.08
2023-04-12T21:11:51.211Z,15.65
2023-04-12T21:14:20.543Z,14.77
2023-04-12T21:16:50.774Z,13.20
2023-04-12T21:19:18.450Z,9.27
2023-04-12T21:21:46.074Z,9.25
2023-04-12T21:24:13.213Z,26.27
2023-04-12T21:26:45.054Z,25.73
2023-04-12T21:29:11.849Z,26.67
2023-04-12T21:31:41.712Z,18.55
2023-04-12T21:34:09.223Z,10.85
2023-04-12T21:36:35.985Z,8.40
2023-04-12T21:39:05.175Z,15.30
2023-04-12T21:41:32.700Z,12.85
2023-04-12T21:44:02.684Z,5.10
2023-04-12T21:46:29.437Z,6.82
2023-04-12T21:48:58.054Z,10.77
2023-04-12T21:54:12.544Z,2.80
2023-04-12T21:56:39.397Z,1.88
2023-04-12T21:59:07.520Z,2.88
2023-04-12T22:01:39.313Z,2.03
2023-04-12T22:04:19.677Z,1.88
2023-04-12T22:10:52.885Z,3.92
2023-04-12T22:13:27.972Z,3.55
2023-04-12T22:16:03.487Z,3.13
2023-04-12T22:18:31.896Z,2.53
2023-04-12T22:21:04.798Z,2.33
2023-04-12T22:23:34.446Z,2.30
2023-04-12T22:26:01.455Z,1.67
2023-04-12T22:28:28.535Z,1.42
2023-04-12T22:30:57.173Z,2.95
2023-04-12T22:33:24.054Z,1.23
2023-04-12T22:35:53.712Z,1.02
2023-04-12T22:38:20.662Z,1.63
2023-04-12T22:40:47.533Z,1.55
2023-04-12T22:43:21.003Z,1.30
2023-04-12T22:45:55.872Z,0.93
2023-04-12T22:48:25.028Z,1.00
2023-04-12T22:50:52.148Z,0.98
2023-04-12T22:53:19.068Z,0.38
2023-04-12T22:55:45.864Z,0.73
2023-04-12T22:58:12.755Z,1.25
2023-04-12T23:00:39.852Z,1.55
2023-04-12T23:03:10.897Z,0.50
2023-04-12T23:05:38.164Z,0.90
2023-04-12T23:08:08.090Z,0.82
2023-04-12T23:10:37.348Z,1.30
2023-04-12T23:13:10.142Z,0.95
2023-04-12T23:15:46.011Z,0.73
2023-04-12T23:18:13.044Z,1.25
2023-04-12T23:20:40.455Z,0.70
2023-04-12T23:23:08.031Z,1.23
2023-04-12T23:25:41.707Z,2.10
2023-04-12T23:28:14.357Z,0.93
2023-04-12T23:30:47.734Z,0.90
2023-04-12T23:33:18.366Z,1.42
2023-04-12T23:35:47.609Z,1.20
2023-04-12T23:38:23.223Z,1.10
2023-04-12T23:40:56.482Z,0.55
2023-04-12T23:43:25.264Z,2.28
2023-04-12T23:45:53.023Z,0.70
2023-04-12T23:48:20.199Z,0.90
2023-04-12T23:50:54.090Z,0.65
2023-04-12T23:53:21.549Z,0.25
2023-04-12T23:55:51.026Z,0.32
2023-04-12T23:58:18.663Z,1.35
